sensor_id;sensor_type;location;lat;lon;timestamp;temperature;humidity
11538;DHT22;50159;49.426;11.182;2023-04-03T00:01:06;3.40;99.90
11538;DHT22;50159;49.426;11.182;2023-04-03T00:03:34;3.40;99.90
11538;DHT22;50159;49.426;11.182;2023-04-03T00:06:01;3.40;99.90
11538;DHT22;50159;49.426;11.182;2023-04-03T00:08:28;3.30;99.90
11538;DHT22;50159;49.426;11.182;2023-04-03T00:10:59;3.30;99.90
11538;DHT22;50159;49.426;11.182;2023-04-03T00:13:25;3.30;99.90
11538;DHT22;50159;49.426;11.182;2023-04-03T00:15:52;3.30;99.90
11538;DHT22;50159;49.426;11.182;2023-04-03T00:18:21;3.30;99.90
11538;DHT22;50159;49.426;11.182;2023-04-03T00:20:48;3.20;99.90
11538;DHT22;50159;49.426;11.182;2023-04-03T00:23:16;3.20;99.90
11538;DHT22;50159;49.426;11.182;2023-04-03T00:25:43;3.10;99.90
11538;DHT22;50159;49.426;11.182;2023-04-03T00:28:10;3.10;99.90
11538;DHT22;50159;49.426;11.182;2023-04-03T00:30:37;3.00;99.90
11538;DHT22;50159;49.426;11.182;2023-04-03T00:33:04;3.00;99.90
11538;DHT22;50159;49.426;11.182;2023-04-03T00:35:31;3.00;99.90
11538;DHT22;50159;49.426;11.182;2023-04-03T00:37:58;3.00;99.90
11538;DHT22;50159;49.426;11.182;2023-04-03T00:40:26;2.90;99.90
11538;DHT22;50159;49.426;11.182;2023-04-03T00:42:58;2.90;99.90
11538;DHT22;50159;49.426;11.182;2023-04-03T00:45:36;2.90;99.90
11538;DHT22;50159;49.426;11.182;2023-04-03T00:48:07;2.90;99.90
11538;DHT22;50159;49.426;11.182;2023-04-03T00:50:39;2.90;99.90
11538;DHT22;50159;49.426;11.182;2023-04-03T00:53:11;2.90;99.90
11538;DHT22;50159;49.426;11.182;2023-04-03T00:55:43;2.90;99.90
11538;DHT22;50159;49.426;11.182;2023-04-03T00:58:11;2.90;99.90
11538;DHT22;50159;49.426;11.182;2023-04-03T01:00:43;2.80;99.90
11538;DHT22;50159;49.426;11.182;2023-04-03T01:03:13;2.80;99.90
11538;DHT22;50159;49.426;11.182;2023-04-03T01:05:40;2.80;99.90
11538;DHT22;50159;49.426;11.182;2023-04-03T01:08:07;2.80;99.90
11538;DHT22;50159;49.426;11.182;2023-04-03T01:10:34;2.80;99.90
11538;DHT22;50159;49.426;11.182;2023-04-03T01:13:01;2.80;99.90
11538;DHT22;50159;49.426;11.182;2023-04-03T01:15:54;2.80;99.90
11538;DHT22;50159;49.426;11.182;2023-04-03T01:18:22;2.80;99.90
11538;DHT22;50159;49.426;11.182;2023-04-03T01:26:37;2.70;99.90
11538;DHT22;50159;49.426;11.182;2023-04-03T01:29:04;2.70;99.90
11538;DHT22;50159;49.426;11.182;2023-04-03T01:31:49;2.60;99.90
11538;DHT22;50159;49.426;11.182;2023-04-03T01:34:17;2.60;99.90
11538;DHT22;50159;49.426;11.182;2023-04-03T01:36:44;2.60;99.90
11538;DHT22;50159;49.426;11.182;2023-04-03T01:39:12;2.50;99.90
11538;DHT22;50159;49.426;11.182;2023-04-03T01:41:39;2.50;99.90
11538;DHT22;50159;49.426;11.182;2023-04-03T01:44:06;2.50;99.90
11538;DHT22;50159;49.426;11.182;2023-04-03T01:46:33;2.50;99.90
11538;DHT22;50159;49.426;11.182;2023-04-03T01:48:59;2.40;99.90
11538;DHT22;50159;49.426;11.182;2023-04-03T01:51:26;2.40;99.90
11538;DHT22;50159;49.426;11.182;2023-04-03T01:53:53;2.40;99.90
11538;DHT22;50159;49.426;11.182;2023-04-03T01:56:20;2.30;99.90
11538;DHT22;50159;49.426;11.182;2023-04-03T01:58:47;2.30;99.90
11538;DHT22;50159;49.426;11.182;2023-04-03T02:01:14;2.30;99.90
11538;DHT22;50159;49.426;11.182;2023-04-03T02:03:42;2.20;99.90
11538;DHT22;50159;49.426;11.182;2023-04-03T02:06:08;2.20;99.90
11538;DHT22;50159;49.426;11.182;2023-04-03T02:08:38;2.20;99.90
11538;DHT22;50159;49.426;11.182;2023-04-03T02:11:04;2.10;99.90
11538;DHT22;50159;49.426;11.182;2023-04-03T02:13:31;2.00;99.90
11538;DHT22;50159;49.426;11.182;2023-04-03T02:15:58;2.00;99.90
11538;DHT22;50159;49.426;11.182;2023-04-03T02:18:25;2.00;99.90
11538;DHT22;50159;49.426;11.182;2023-04-03T02:20:52;1.90;99.90
11538;DHT22;50159;49.426;11.182;2023-04-03T02:23:19;1.90;99.90
11538;DHT22;50159;49.426;11.182;2023-04-03T02:25:45;1.80;99.90
11538;DHT22;50159;49.426;11.182;2023-04-03T02:28:12;1.70;99.90
11538;DHT22;50159;49.426;11.182;2023-04-03T02:30:39;1.70;99.90
11538;DHT22;50159;49.426;11.182;2023-04-03T02:33:06;1.70;99.90
11538;DHT22;50159;49.426;11.182;2023-04-03T02:35:33;1.70;99.90
11538;DHT22;50159;49.426;11.182;2023-04-03T02:37:59;1.60;99.90
11538;DHT22;50159;49.426;11.182;2023-04-03T02:40:26;1.60;99.90
11538;DHT22;50159;49.426;11.182;2023-04-03T02:42:53;1.50;99.90
11538;DHT22;50159;49.426;11.182;2023-04-03T02:45:20;1.50;99.90
11538;DHT22;50159;49.426;11.182;2023-04-03T02:47:47;1.50;99.90
11538;DHT22;50159;49.426;11.182;2023-04-03T02:50:14;1.50;99.90
11538;DHT22;50159;49.426;11.182;2023-04-03T02:52:40;1.50;99.90
11538;DHT22;50159;49.426;11.182;2023-04-03T02:55:08;1.40;99.90
11538;DHT22;50159;49.426;11.182;2023-04-03T02:57:34;1.40;99.90
11538;DHT22;50159;49.426;11.182;2023-04-03T03:00:02;1.40;99.90
11538;DHT22;50159;49.426;11.182;2023-04-03T03:02:29;1.40;99.90
11538;DHT22;50159;49.426;11.182;2023-04-03T03:04:56;1.40;99.90
11538;DHT22;50159;49.426;11.182;2023-04-03T03:07:23;1.40;99.90
11538;DHT22;50159;49.426;11.182;2023-04-03T03:09:50;1.40;99.90
11538;DHT22;50159;49.426;11.182;2023-04-03T03:12:17;1.40;99.90
11538;DHT22;50159;49.426;11.182;2023-04-03T03:14:48;1.40;99.90
11538;DHT22;50159;49.426;11.182;2023-04-03T03:17:15;1.30;99.90
11538;DHT22;50159;49.426;11.182;2023-04-03T03:19:42;1.30;99.90
11538;DHT22;50159;49.426;11.182;2023-04-03T03:22:10;1.30;99.90
11538;DHT22;50159;49.426;11.182;2023-04-03T03:24:37;1.30;99.90
11538;DHT22;50159;49.426;11.182;2023-04-03T03:27:03;1.30;99.90
11538;DHT22;50159;49.426;11.182;2023-04-03T03:29:30;1.30;99.90
11538;DHT22;50159;49.426;11.182;2023-04-03T03:31:57;1.30;99.90
11538;DHT22;50159;49.426;11.182;2023-04-03T03:34:24;1.30;99.90
11538;DHT22;50159;49.426;11.182;2023-04-03T03:36:51;1.20;99.90
11538;DHT22;50159;49.426;11.182;2023-04-03T03:39:17;1.20;99.90
11538;DHT22;50159;49.426;11.182;2023-04-03T03:41:44;1.10;99.90
11538;DHT22;50159;49.426;11.182;2023-04-03T03:44:11;1.10;99.90
11538;DHT22;50159;49.426;11.182;2023-04-03T03:46:39;1.10;99.90
11538;DHT22;50159;49.426;11.182;2023-04-03T03:49:06;1.00;99.90
11538;DHT22;50159;49.426;11.182;2023-04-03T03:51:33;1.00;99.90
11538;DHT22;50159;49.426;11.182;2023-04-03T03:54:00;1.00;99.90
11538;DHT22;50159;49.426;11.182;2023-04-03T03:56:27;1.00;99.90
11538;DHT22;50159;49.426;11.182;2023-04-03T03:58:53;1.10;99.90
11538;DHT22;50159;49.426;11.182;2023-04-03T04:01:23;1.10;99.90
11538;DHT22;50159;49.426;11.182;2023-04-03T04:03:51;1.10;99.90
11538;DHT22;50159;49.426;11.182;2023-04-03T04:06:18;1.10;99.90
11538;DHT22;50159;49.426;11.182;2023-04-03T04:08:44;1.10;99.90
11538;DHT22;50159;49.426;11.182;2023-04-03T04:11:11;1.10;99.90
11538;DHT22;50159;49.426;11.182;2023-04-03T04:13:38;1.10;99.90
11538;DHT22;50159;49.426;11.182;2023-04-03T04:16:05;1.10;99.90
11538;DHT22;50159;49.426;11.182;2023-04-03T04:18:33;1.10;99.90
11538;DHT22;50159;49.426;11.182;2023-04-03T04:21:00;1.10;99.90
11538;DHT22;50159;49.426;11.182;2023-04-03T04:23:26;1.20;99.90
11538;DHT22;50159;49.426;11.182;2023-04-03T04:25:53;1.20;99.90
11538;DHT22;50159;49.426;11.182;2023-04-03T04:28:20;1.20;99.90
11538;DHT22;50159;49.426;11.182;2023-04-03T04:30:47;1.10;99.90
11538;DHT22;50159;49.426;11.182;2023-04-03T04:33:14;1.10;99.90
11538;DHT22;50159;49.426;11.182;2023-04-03T04:35:42;1.10;99.90
11538;DHT22;50159;49.426;11.182;2023-04-03T04:38:10;1.10;99.90
11538;DHT22;50159;49.426;11.182;2023-04-03T04:40:37;1.10;99.90
11538;DHT22;50159;49.426;11.182;2023-04-03T04:43:04;1.00;99.90
11538;DHT22;50159;49.426;11.182;2023-04-03T04:45:31;1.00;99.90
11538;DHT22;50159;49.426;11.182;2023-04-03T04:47:58;1.00;99.90
11538;DHT22;50159;49.426;11.182;2023-04-03T04:50:24;1.00;99.90
11538;DHT22;50159;49.426;11.182;2023-04-03T04:52:51;1.00;99.90
11538;DHT22;50159;49.426;11.182;2023-04-03T04:55:18;0.90;99.90
11538;DHT22;50159;49.426;11.182;2023-04-03T04:57:45;0.90;99.90
11538;DHT22;50159;49.426;11.182;2023-04-03T05:00:13;0.90;99.90
11538;DHT22;50159;49.426;11.182;2023-04-03T05:02:40;0.90;99.90
11538;DHT22;50159;49.426;11.182;2023-04-03T05:05:07;0.90;99.90
11538;DHT22;50159;49.426;11.182;2023-04-03T05:07:35;1.00;99.90
11538;DHT22;50159;49.426;11.182;2023-04-03T05:10:03;1.10;99.90
11538;DHT22;50159;49.426;11.182;2023-04-03T05:12:30;1.10;99.90
11538;DHT22;50159;49.426;11.182;2023-04-03T05:14:57;1.10;99.90
11538;DHT22;50159;49.426;11.182;2023-04-03T05:17:23;1.20;99.90
11538;DHT22;50159;49.426;11.182;2023-04-03T05:19:50;1.20;99.90
11538;DHT22;50159;49.426;11.182;2023-04-03T05:22:17;1.30;99.90
11538;DHT22;50159;49.426;11.182;2023-04-03T05:24:44;1.30;99.90
11538;DHT22;50159;49.426;11.182;2023-04-03T05:27:10;1.40;99.90
11538;DHT22;50159;49.426;11.182;2023-04-03T05:29:37;1.40;99.90
11538;DHT22;50159;49.426;11.182;2023-04-03T05:32:04;1.50;99.90
11538;DHT22;50159;49.426;11.182;2023-04-03T05:34:31;1.50;99.90
11538;DHT22;50159;49.426;11.182;2023-04-03T05:36:57;1.60;99.90
11538;DHT22;50159;49.426;11.182;2023-04-03T05:39:24;1.70;99.90
11538;DHT22;50159;49.426;11.182;2023-04-03T05:41:51;1.70;99.90
11538;DHT22;50159;49.426;11.182;2023-04-03T05:44:18;1.70;99.90
11538;DHT22;50159;49.426;11.182;2023-04-03T05:46:45;1.80;99.90
11538;DHT22;50159;49.426;11.182;2023-04-03T05:49:12;1.80;99.90
11538;DHT22;50159;49.426;11.182;2023-04-03T05:51:39;1.90;99.90
11538;DHT22;50159;49.426;11.182;2023-04-03T05:54:13;2.00;99.90
11538;DHT22;50159;49.426;11.182;2023-04-03T05:56:44;2.00;99.90
11538;DHT22;50159;49.426;11.182;2023-04-03T05:59:11;2.10;99.90
11538;DHT22;50159;49.426;11.182;2023-04-03T06:01:38;2.10;99.90
11538;DHT22;50159;49.426;11.182;2023-04-03T06:04:05;2.20;99.90
11538;DHT22;50159;49.426;11.182;2023-04-03T06:06:56;2.20;99.90
11538;DHT22;50159;49.426;11.182;2023-04-03T06:09:27;2.30;99.90
11538;DHT22;50159;49.426;11.182;2023-04-03T06:11:58;2.40;99.90
11538;DHT22;50159;49.426;11.182;2023-04-03T06:14:25;2.40;99.90
11538;DHT22;50159;49.426;11.182;2023-04-03T06:16:53;2.40;99.90
11538;DHT22;50159;49.426;11.182;2023-04-03T06:19:21;2.50;99.90
11538;DHT22;50159;49.426;11.182;2023-04-03T06:21:48;2.50;99.90
11538;DHT22;50159;49.426;11.182;2023-04-03T06:24:16;2.50;99.90
11538;DHT22;50159;49.426;11.182;2023-04-03T06:26:44;2.60;99.90
11538;DHT22;50159;49.426;11.182;2023-04-03T06:29:10;2.70;99.90
11538;DHT22;50159;49.426;11.182;2023-04-03T06:31:37;2.70;99.90
11538;DHT22;50159;49.426;11.182;2023-04-03T06:34:05;2.80;99.90
11538;DHT22;50159;49.426;11.182;2023-04-03T06:36:35;2.80;99.90
11538;DHT22;50159;49.426;11.182;2023-04-03T06:39:02;2.90;99.90
11538;DHT22;50159;49.426;11.182;2023-04-03T06:41:30;2.90;99.90
11538;DHT22;50159;49.426;11.182;2023-04-03T06:43:57;3.00;99.90
11538;DHT22;50159;49.426;11.182;2023-04-03T06:46:26;3.10;99.90
11538;DHT22;50159;49.426;11.182;2023-04-03T06:48:53;3.10;99.90
11538;DHT22;50159;49.426;11.182;2023-04-03T06:51:24;3.20;99.90
11538;DHT22;50159;49.426;11.182;2023-04-03T06:53:55;3.20;99.90
11538;DHT22;50159;49.426;11.182;2023-04-03T06:56:24;3.20;99.90
11538;DHT22;50159;49.426;11.182;2023-04-03T06:58:52;3.30;99.90
11538;DHT22;50159;49.426;11.182;2023-04-03T07:01:21;3.40;99.90
11538;DHT22;50159;49.426;11.182;2023-04-03T07:03:49;3.50;99.90
11538;DHT22;50159;49.426;11.182;2023-04-03T07:06:17;3.50;99.90
11538;DHT22;50159;49.426;11.182;2023-04-03T07:08:45;3.70;99.90
11538;DHT22;50159;49.426;11.182;2023-04-03T07:11:15;3.70;99.90
11538;DHT22;50159;49.426;11.182;2023-04-03T07:13:43;3.80;99.90
11538;DHT22;50159;49.426;11.182;2023-04-03T07:16:09;3.90;99.90
11538;DHT22;50159;49.426;11.182;2023-04-03T07:18:37;4.00;99.90
11538;DHT22;50159;49.426;11.182;2023-04-03T07:21:04;4.00;99.90
11538;DHT22;50159;49.426;11.182;2023-04-03T07:23:31;4.00;99.90
11538;DHT22;50159;49.426;11.182;2023-04-03T07:25:58;4.00;99.90
11538;DHT22;50159;49.426;11.182;2023-04-03T07:28:25;4.00;99.90
11538;DHT22;50159;49.426;11.182;2023-04-03T07:31:00;4.00;99.90
11538;DHT22;50159;49.426;11.182;2023-04-03T07:33:33;4.10;99.90
11538;DHT22;50159;49.426;11.182;2023-04-03T07:36:01;4.20;99.90
11538;DHT22;50159;49.426;11.182;2023-04-03T07:38:28;4.30;99.90
11538;DHT22;50159;49.426;11.182;2023-04-03T07:40:55;4.40;99.90
11538;DHT22;50159;49.426;11.182;2023-04-03T07:43:22;4.50;99.90
11538;DHT22;50159;49.426;11.182;2023-04-03T07:45:51;4.50;99.90
11538;DHT22;50159;49.426;11.182;2023-04-03T07:48:20;4.50;99.90
11538;DHT22;50159;49.426;11.182;2023-04-03T07:50:48;4.50;99.30
11538;DHT22;50159;49.426;11.182;2023-04-03T07:53:15;4.50;99.80
11538;DHT22;50159;49.426;11.182;2023-04-03T07:55:43;4.70;99.90
11538;DHT22;50159;49.426;11.182;2023-04-03T07:58:16;4.80;99.90
11538;DHT22;50159;49.426;11.182;2023-04-03T08:00:44;4.90;98.50
11538;DHT22;50159;49.426;11.182;2023-04-03T08:03:12;4.90;97.40
11538;DHT22;50159;49.426;11.182;2023-04-03T08:05:41;4.90;97.40
11538;DHT22;50159;49.426;11.182;2023-04-03T08:08:14;5.00;97.20
11538;DHT22;50159;49.426;11.182;2023-04-03T08:10:51;5.10;97.20
11538;DHT22;50159;49.426;11.182;2023-04-03T08:13:20;5.30;97.30
11538;DHT22;50159;49.426;11.182;2023-04-03T08:15:48;5.30;96.00
11538;DHT22;50159;49.426;11.182;2023-04-03T08:18:15;5.40;95.30
11538;DHT22;50159;49.426;11.182;2023-04-03T08:20:43;5.40;93.50
11538;DHT22;50159;49.426;11.182;2023-04-03T08:23:10;5.40;92.80
11538;DHT22;50159;49.426;11.182;2023-04-03T08:25:39;5.40;92.90
11538;DHT22;50159;49.426;11.182;2023-04-03T08:28:07;5.50;93.00
11538;DHT22;50159;49.426;11.182;2023-04-03T08:30:35;5.60;92.10
11538;DHT22;50159;49.426;11.182;2023-04-03T08:33:02;5.60;91.20
11538;DHT22;50159;49.426;11.182;2023-04-03T08:35:30;5.60;91.20
11538;DHT22;50159;49.426;11.182;2023-04-03T08:37:57;5.80;92.40
11538;DHT22;50159;49.426;11.182;2023-04-03T08:40:24;6.00;91.80
11538;DHT22;50159;49.426;11.182;2023-04-03T08:45:50;6.80;85.40
11538;DHT22;50159;49.426;11.182;2023-04-03T08:48:30;6.80;81.40
11538;DHT22;50159;49.426;11.182;2023-04-03T08:51:03;6.50;79.40
11538;DHT22;50159;49.426;11.182;2023-04-03T08:53:42;6.40;79.30
11538;DHT22;50159;49.426;11.182;2023-04-03T08:56:13;6.30;80.00
11538;DHT22;50159;49.426;11.182;2023-04-03T08:58:59;6.10;76.20
11538;DHT22;50159;49.426;11.182;2023-04-03T09:01:35;5.90;72.00
11538;DHT22;50159;49.426;11.182;2023-04-03T09:04:13;5.90;71.60
11538;DHT22;50159;49.426;11.182;2023-04-03T09:06:49;6.00;71.40
11538;DHT22;50159;49.426;11.182;2023-04-03T09:09:36;6.20;69.50
11538;DHT22;50159;49.426;11.182;2023-04-03T09:20:57;6.00;67.10
11538;DHT22;50159;49.426;11.182;2023-04-03T09:23:50;6.00;69.00
11538;DHT22;50159;49.426;11.182;2023-04-03T09:28:59;6.10;69.10
11538;DHT22;50159;49.426;11.182;2023-04-03T09:31:39;6.00;67.20
11538;DHT22;50159;49.426;11.182;2023-04-03T09:34:26;5.80;66.00
11538;DHT22;50159;49.426;11.182;2023-04-03T09:36:56;5.70;66.60
11538;DHT22;50159;49.426;11.182;2023-04-03T09:39:28;5.70;67.70
11538;DHT22;50159;49.426;11.182;2023-04-03T09:42:02;5.70;69.30
11538;DHT22;50159;49.426;11.182;2023-04-03T09:44:33;5.80;69.00
11538;DHT22;50159;49.426;11.182;2023-04-03T09:50:19;6.30;66.80
11538;DHT22;50159;49.426;11.182;2023-04-03T09:52:49;6.50;64.50
11538;DHT22;50159;49.426;11.182;2023-04-03T09:57:54;6.50;60.50
11538;DHT22;50159;49.426;11.182;2023-04-03T10:00:35;6.40;60.50
11538;DHT22;50159;49.426;11.182;2023-04-03T10:03:06;6.30;60.20
11538;DHT22;50159;49.426;11.182;2023-04-03T10:05:52;6.20;58.70
11538;DHT22;50159;49.426;11.182;2023-04-03T10:08:29;6.30;59.80
11538;DHT22;50159;49.426;11.182;2023-04-03T10:11:17;6.60;60.00
11538;DHT22;50159;49.426;11.182;2023-04-03T10:13:59;6.60;58.40
11538;DHT22;50159;49.426;11.182;2023-04-03T10:19:17;6.70;58.50
11538;DHT22;50159;49.426;11.182;2023-04-03T10:22:04;6.70;58.70
11538;DHT22;50159;49.426;11.182;2023-04-03T10:28:18;6.80;57.60
11538;DHT22;50159;49.426;11.182;2023-04-03T10:31:16;6.80;55.90
11538;DHT22;50159;49.426;11.182;2023-04-03T10:34:21;6.80;56.60
11538;DHT22;50159;49.426;11.182;2023-04-03T10:42:39;6.60;54.20
11538;DHT22;50159;49.426;11.182;2023-04-03T10:51:22;7.00;54.10
11538;DHT22;50159;49.426;11.182;2023-04-03T10:54:00;7.10;53.10
11538;DHT22;50159;49.426;11.182;2023-04-03T10:59:08;7.50;53.50
11538;DHT22;50159;49.426;11.182;2023-04-03T11:01:49;8.10;54.50
11538;DHT22;50159;49.426;11.182;2023-04-03T11:04:22;8.80;53.60
11538;DHT22;50159;49.426;11.182;2023-04-03T11:07:01;9.30;53.10
11538;DHT22;50159;49.426;11.182;2023-04-03T11:09:44;9.60;48.30
11538;DHT22;50159;49.426;11.182;2023-04-03T11:12:20;9.70;49.40
11538;DHT22;50159;49.426;11.182;2023-04-03T11:15:15;9.80;48.20
11538;DHT22;50159;49.426;11.182;2023-04-03T11:17:49;10.20;47.20
11538;DHT22;50159;49.426;11.182;2023-04-03T11:23:44;10.60;43.20
11538;DHT22;50159;49.426;11.182;2023-04-03T11:26:14;10.20;40.00
11538;DHT22;50159;49.426;11.182;2023-04-03T11:28:43;10.00;41.80
11538;DHT22;50159;49.426;11.182;2023-04-03T11:34:46;9.80;41.60
11538;DHT22;50159;49.426;11.182;2023-04-03T11:37:39;10.00;42.30
11538;DHT22;50159;49.426;11.182;2023-04-03T11:42:49;9.40;43.30
11538;DHT22;50159;49.426;11.182;2023-04-03T11:48:06;9.70;44.40
11538;DHT22;50159;49.426;11.182;2023-04-03T11:50:51;10.00;41.90
11538;DHT22;50159;49.426;11.182;2023-04-03T11:53:28;10.20;38.90
11538;DHT22;50159;49.426;11.182;2023-04-03T11:56:01;10.00;39.50
11538;DHT22;50159;49.426;11.182;2023-04-03T11:58:34;9.70;41.20
11538;DHT22;50159;49.426;11.182;2023-04-03T12:01:05;9.50;42.20
11538;DHT22;50159;49.426;11.182;2023-04-03T12:13:42;11.80;39.70
11538;DHT22;50159;49.426;11.182;2023-04-03T12:27:27;11.00;35.40
11538;DHT22;50159;49.426;11.182;2023-04-03T12:29:58;10.60;37.30
11538;DHT22;50159;49.426;11.182;2023-04-03T12:35:42;11.00;38.20
11538;DHT22;50159;49.426;11.182;2023-04-03T12:44:47;12.10;35.70
11538;DHT22;50159;49.426;11.182;2023-04-03T12:47:29;12.20;35.20
11538;DHT22;50159;49.426;11.182;2023-04-03T12:50:04;11.90;35.10
11538;DHT22;50159;49.426;11.182;2023-04-03T12:52:46;11.40;34.70
11538;DHT22;50159;49.426;11.182;2023-04-03T12:55:19;11.60;36.60
11538;DHT22;50159;49.426;11.182;2023-04-03T12:57:47;11.70;33.60
11538;DHT22;50159;49.426;11.182;2023-04-03T13:03:01;12.00;30.60
11538;DHT22;50159;49.426;11.182;2023-04-03T13:05:30;12.10;31.10
11538;DHT22;50159;49.426;11.182;2023-04-03T13:08:10;12.10;31.40
11538;DHT22;50159;49.426;11.182;2023-04-03T13:11:11;12.60;33.40
11538;DHT22;50159;49.426;11.182;2023-04-03T13:13:38;13.10;33.90
11538;DHT22;50159;49.426;11.182;2023-04-03T13:16:10;13.50;33.60
11538;DHT22;50159;49.426;11.182;2023-04-03T13:18:40;13.00;30.80
11538;DHT22;50159;49.426;11.182;2023-04-03T13:21:26;12.40;31.80
11538;DHT22;50159;49.426;11.182;2023-04-03T13:23:57;11.70;32.60
11538;DHT22;50159;49.426;11.182;2023-04-03T13:26:41;11.20;33.10
11538;DHT22;50159;49.426;11.182;2023-04-03T13:29:28;11.60;34.40
11538;DHT22;50159;49.426;11.182;2023-04-03T13:31:59;12.10;32.80
11538;DHT22;50159;49.426;11.182;2023-04-03T13:34:42;12.50;31.90
11538;DHT22;50159;49.426;11.182;2023-04-03T13:40:01;12.00;34.10
11538;DHT22;50159;49.426;11.182;2023-04-03T13:42:30;11.30;35.20
11538;DHT22;50159;49.426;11.182;2023-04-03T13:45:15;10.90;37.50
11538;DHT22;50159;49.426;11.182;2023-04-03T13:51:05;10.40;38.60
11538;DHT22;50159;49.426;11.182;2023-04-03T13:53:57;10.00;38.50
11538;DHT22;50159;49.426;11.182;2023-04-03T13:56:35;10.20;40.60
11538;DHT22;50159;49.426;11.182;2023-04-03T14:01:45;12.00;38.60
11538;DHT22;50159;49.426;11.182;2023-04-03T14:04:23;12.90;37.30
11538;DHT22;50159;49.426;11.182;2023-04-03T14:06:54;13.70;36.40
11538;DHT22;50159;49.426;11.182;2023-04-03T14:09:23;14.00;33.20
11538;DHT22;50159;49.426;11.182;2023-04-03T14:11:58;13.50;32.20
11538;DHT22;50159;49.426;11.182;2023-04-03T14:14:33;12.70;33.80
11538;DHT22;50159;49.426;11.182;2023-04-03T14:17:13;12.10;35.60
11538;DHT22;50159;49.426;11.182;2023-04-03T14:19:52;11.60;37.20
11538;DHT22;50159;49.426;11.182;2023-04-03T14:22:25;11.20;36.80
11538;DHT22;50159;49.426;11.182;2023-04-03T14:24:55;10.90;39.10
11538;DHT22;50159;49.426;11.182;2023-04-03T14:27:26;13.40;39.50
11538;DHT22;50159;49.426;11.182;2023-04-03T14:30:11;16.50;34.40
11538;DHT22;50159;49.426;11.182;2023-04-03T14:32:43;19.20;29.00
11538;DHT22;50159;49.426;11.182;2023-04-03T14:35:11;18.80;27.70
11538;DHT22;50159;49.426;11.182;2023-04-03T14:37:38;17.70;28.00
11538;DHT22;50159;49.426;11.182;2023-04-03T14:40:06;16.30;28.80
11538;DHT22;50159;49.426;11.182;2023-04-03T14:42:37;14.80;30.00
11538;DHT22;50159;49.426;11.182;2023-04-03T14:45:08;14.30;31.40
11538;DHT22;50159;49.426;11.182;2023-04-03T14:47:47;14.60;31.80
11538;DHT22;50159;49.426;11.182;2023-04-03T14:50:22;15.80;29.90
11538;DHT22;50159;49.426;11.182;2023-04-03T14:52:52;15.20;29.00
11538;DHT22;50159;49.426;11.182;2023-04-03T14:55:23;14.30;30.20
11538;DHT22;50159;49.426;11.182;2023-04-03T14:57:52;14.30;32.80
11538;DHT22;50159;49.426;11.182;2023-04-03T15:00:21;14.90;31.60
11538;DHT22;50159;49.426;11.182;2023-04-03T15:02:48;15.50;29.20
11538;DHT22;50159;49.426;11.182;2023-04-03T15:05:16;15.90;28.90
11538;DHT22;50159;49.426;11.182;2023-04-03T15:07:48;16.10;27.70
11538;DHT22;50159;49.426;11.182;2023-04-03T15:10:21;15.30;27.40
11538;DHT22;50159;49.426;11.182;2023-04-03T15:12:51;14.10;27.70
11538;DHT22;50159;49.426;11.182;2023-04-03T15:15:20;13.30;30.20
11538;DHT22;50159;49.426;11.182;2023-04-03T15:17:53;13.60;30.80
11538;DHT22;50159;49.426;11.182;2023-04-03T15:20:25;14.20;30.70
11538;DHT22;50159;49.426;11.182;2023-04-03T15:22:53;14.80;29.70
11538;DHT22;50159;49.426;11.182;2023-04-03T15:25:23;15.80;30.00
11538;DHT22;50159;49.426;11.182;2023-04-03T15:27:51;17.20;29.40
11538;DHT22;50159;49.426;11.182;2023-04-03T15:30:19;18.40;27.30
11538;DHT22;50159;49.426;11.182;2023-04-03T15:32:46;19.00;26.10
11538;DHT22;50159;49.426;11.182;2023-04-03T15:35:14;19.50;25.80
11538;DHT22;50159;49.426;11.182;2023-04-03T15:37:42;19.60;26.20
11538;DHT22;50159;49.426;11.182;2023-04-03T15:40:10;19.90;25.60
11538;DHT22;50159;49.426;11.182;2023-04-03T15:42:37;20.20;25.30
11538;DHT22;50159;49.426;11.182;2023-04-03T15:45:06;19.70;25.60
11538;DHT22;50159;49.426;11.182;2023-04-03T15:47:33;18.60;25.80
11538;DHT22;50159;49.426;11.182;2023-04-03T15:50:00;16.90;26.90
11538;DHT22;50159;49.426;11.182;2023-04-03T15:52:27;15.20;27.80
11538;DHT22;50159;49.426;11.182;2023-04-03T15:54:54;13.70;29.30
11538;DHT22;50159;49.426;11.182;2023-04-03T15:57:21;12.70;30.60
11538;DHT22;50159;49.426;11.182;2023-04-03T15:59:52;11.70;32.30
11538;DHT22;50159;49.426;11.182;2023-04-03T16:02:19;11.40;34.70
11538;DHT22;50159;49.426;11.182;2023-04-03T16:04:47;11.60;35.30
11538;DHT22;50159;49.426;11.182;2023-04-03T16:07:14;12.00;34.00
11538;DHT22;50159;49.426;11.182;2023-04-03T16:09:41;11.90;33.50
11538;DHT22;50159;49.426;11.182;2023-04-03T16:12:08;12.10;33.30
11538;DHT22;50159;49.426;11.182;2023-04-03T16:14:35;11.80;32.40
11538;DHT22;50159;49.426;11.182;2023-04-03T16:17:02;11.60;33.30
11538;DHT22;50159;49.426;11.182;2023-04-03T16:19:29;11.70;33.90
11538;DHT22;50159;49.426;11.182;2023-04-03T16:21:56;12.20;34.00
11538;DHT22;50159;49.426;11.182;2023-04-03T16:24:23;12.10;32.20
11538;DHT22;50159;49.426;11.182;2023-04-03T16:26:50;11.70;33.60
11538;DHT22;50159;49.426;11.182;2023-04-03T16:29:17;11.70;34.40
11538;DHT22;50159;49.426;11.182;2023-04-03T16:31:44;11.90;34.60
11538;DHT22;50159;49.426;11.182;2023-04-03T16:34:11;12.00;34.10
11538;DHT22;50159;49.426;11.182;2023-04-03T16:36:38;12.10;33.60
11538;DHT22;50159;49.426;11.182;2023-04-03T16:39:05;12.10;33.80
11538;DHT22;50159;49.426;11.182;2023-04-03T16:41:32;12.00;33.80
11538;DHT22;50159;49.426;11.182;2023-04-03T16:43:59;12.10;33.20
11538;DHT22;50159;49.426;11.182;2023-04-03T16:46:25;12.00;33.00
11538;DHT22;50159;49.426;11.182;2023-04-03T16:48:53;11.80;34.20
11538;DHT22;50159;49.426;11.182;2023-04-03T16:51:19;11.70;34.10
11538;DHT22;50159;49.426;11.182;2023-04-03T16:53:46;11.80;34.20
11538;DHT22;50159;49.426;11.182;2023-04-03T16:56:13;11.90;34.00
11538;DHT22;50159;49.426;11.182;2023-04-03T16:58:40;11.60;34.30
11538;DHT22;50159;49.426;11.182;2023-04-03T17:01:11;11.10;35.00
11538;DHT22;50159;49.426;11.182;2023-04-03T17:03:40;10.90;35.90
11538;DHT22;50159;49.426;11.182;2023-04-03T17:06:07;10.80;36.10
11538;DHT22;50159;49.426;11.182;2023-04-03T17:08:34;10.30;35.40
11538;DHT22;50159;49.426;11.182;2023-04-03T17:11:01;9.60;37.40
11538;DHT22;50159;49.426;11.182;2023-04-03T17:13:28;8.90;39.20
11538;DHT22;50159;49.426;11.182;2023-04-03T17:15:58;8.30;40.40
11538;DHT22;50159;49.426;11.182;2023-04-03T17:18:26;7.80;41.30
11538;DHT22;50159;49.426;11.182;2023-04-03T17:20:55;7.40;42.70
11538;DHT22;50159;49.426;11.182;2023-04-03T17:23:24;7.10;44.40
11538;DHT22;50159;49.426;11.182;2023-04-03T17:25:52;6.90;44.80
11538;DHT22;50159;49.426;11.182;2023-04-03T17:28:23;6.70;45.60